createdAt,value
2018-07-03T00:00:35.189Z,1.20
2018-07-03T00:03:03.515Z,1.37
2018-07-03T00:05:31.776Z,1.20
2018-07-03T00:08:00.059Z,0.90
2018-07-03T00:10:28.359Z,1.30
2018-07-03T00:12:56.628Z,1.00
2018-07-03T00:15:24.929Z,1.30
2018-07-03T00:17:53.210Z,1.10
2018-07-03T00:20:21.545Z,1.30
2018-07-03T00:22:49.831Z,1.07
2018-07-03T00:25:18.161Z,1.20
2018-07-03T00:27:46.454Z,1.40
2018-07-03T00:30:14.737Z,1.40
2018-07-03T00:32:43.014Z,1.43
2018-07-03T00:35:11.342Z,0.80
2018-07-03T00:37:39.613Z,1.37
2018-07-03T00:40:07.897Z,1.13
2018-07-03T00:42:36.190Z,1.53
2018-07-03T00:45:04.497Z,1.50
2018-07-03T00:47:32.894Z,1.50
2018-07-03T00:50:01.172Z,1.57
2018-07-03T00:52:29.505Z,1.33
2018-07-03T00:54:57.826Z,1.60
2018-07-03T00:57:26.146Z,1.70
2018-07-03T01:00:00.050Z,1.63
2018-07-03T01:02:28.358Z,1.30
2018-07-03T01:04:56.673Z,1.70
2018-07-03T01:07:24.946Z,2.37
2018-07-03T01:09:53.228Z,1.40
2018-07-03T01:12:21.502Z,1.83
2018-07-03T01:14:49.788Z,1.63
2018-07-03T01:17:18.058Z,1.40
2018-07-03T01:19:46.405Z,1.70
2018-07-03T01:22:14.712Z,1.73
2018-07-03T01:24:43.002Z,1.83
2018-07-03T01:27:11.310Z,1.83
2018-07-03T01:29:39.580Z,2.03
2018-07-03T01:32:07.909Z,1.73
2018-07-03T01:34:36.172Z,1.93
2018-07-03T01:37:04.490Z,1.93
2018-07-03T01:39:32.773Z,1.77
2018-07-03T01:42:01.102Z,1.80
2018-07-03T01:44:29.365Z,1.87
2018-07-03T01:46:57.658Z,2.03
2018-07-03T01:49:26.108Z,1.80
2018-07-03T01:51:54.421Z,1.80
2018-07-03T01:54:22.694Z,1.67
2018-07-03T01:56:51.003Z,1.83
2018-07-03T01:59:19.255Z,1.60
2018-07-03T02:01:47.577Z,1.90
2018-07-03T02:04:15.840Z,1.80
2018-07-03T02:06:44.164Z,1.90
2018-07-03T02:09:13.800Z,2.30
2018-07-03T02:11:43.216Z,2.10
2018-07-03T02:14:11.472Z,1.90
2018-07-03T02:16:39.800Z,1.87
2018-07-03T02:19:08.090Z,1.70
2018-07-03T02:21:36.397Z,1.80
2018-07-03T02:24:04.985Z,1.70
2018-07-03T02:26:33.337Z,2.00
2018-07-03T02:29:01.623Z,1.63
2018-07-03T02:31:30.026Z,1.73
2018-07-03T02:33:58.399Z,1.90
2018-07-03T02:36:26.774Z,1.57
2018-07-03T02:38:55.072Z,2.57
2018-07-03T02:41:23.486Z,1.80
2018-07-03T02:43:51.763Z,1.60
2018-07-03T02:46:20.036Z,2.10
2018-07-03T02:48:48.334Z,2.70
2018-07-03T02:51:16.610Z,1.70
2018-07-03T02:53:44.994Z,2.07
2018-07-03T02:56:13.280Z,2.20
2018-07-03T02:58:41.585Z,1.87
2018-07-03T03:01:09.888Z,1.80
2018-07-03T03:03:38.201Z,1.57
2018-07-03T03:06:06.677Z,2.33
2018-07-03T03:08:35.004Z,2.40
2018-07-03T03:11:03.332Z,2.23
2018-07-03T03:13:31.644Z,1.70
2018-07-03T03:15:59.948Z,1.70
2018-07-03T03:18:28.242Z,2.13
2018-07-03T03:20:56.529Z,2.20
2018-07-03T03:23:24.903Z,1.60
2018-07-03T03:25:53.173Z,2.07
2018-07-03T03:28:21.485Z,1.60
2018-07-03T03:30:49.765Z,1.60
2018-07-03T03:33:18.053Z,1.60
2018-07-03T03:35:46.310Z,2.10
2018-07-03T03:38:14.652Z,2.13
2018-07-03T03:40:42.969Z,2.03
2018-07-03T03:43:11.254Z,2.07
2018-07-03T03:45:39.529Z,2.53
2018-07-03T03:48:07.866Z,3.60
2018-07-03T03:50:36.155Z,2.70
2018-07-03T03:53:04.456Z,1.73
2018-07-03T03:55:32.763Z,1.90
2018-07-03T03:58:01.038Z,2.20
2018-07-03T04:00:29.321Z,1.80
2018-07-03T04:02:57.602Z,1.73
2018-07-03T04:05:25.962Z,1.73
2018-07-03T04:07:54.226Z,1.60
2018-07-03T04:10:22.516Z,1.80
2018-07-03T04:12:50.785Z,1.97
2018-07-03T04:15:19.118Z,1.50
2018-07-03T04:17:47.385Z,1.40
2018-07-03T04:20:15.697Z,4.70
2018-07-03T04:22:44.617Z,5.23
2018-07-03T04:25:12.925Z,3.10
2018-07-03T04:27:41.196Z,2.50
2018-07-03T04:30:09.493Z,7.13
2018-07-03T04:32:37.781Z,2.53
2018-07-03T04:35:06.185Z,3.90
2018-07-03T04:37:34.471Z,4.30
2018-07-03T04:40:03.409Z,5.77
2018-07-03T04:42:31.686Z,8.00
2018-07-03T04:45:00.171Z,4.23
2018-07-03T04:47:28.817Z,18.77
2018-07-03T04:49:57.201Z,7.27
2018-07-03T04:52:25.514Z,7.00
2018-07-03T04:54:53.806Z,5.70
2018-07-03T04:57:22.093Z,6.67
2018-07-03T04:59:50.405Z,5.07
2018-07-03T05:02:18.678Z,3.20
2018-07-03T05:04:46.981Z,2.10
2018-07-03T05:07:17.950Z,1.90
2018-07-03T05:09:47.442Z,2.20
2018-07-03T05:12:15.749Z,1.80
2018-07-03T05:14:44.098Z,2.20
2018-07-03T05:17:12.362Z,2.17
2018-07-03T05:19:41.020Z,2.00
2018-07-03T05:22:09.329Z,1.60
2018-07-03T05:24:37.662Z,2.13
2018-07-03T05:27:05.934Z,2.30
2018-07-03T05:29:34.230Z,2.00
2018-07-03T05:32:02.566Z,1.93
2018-07-03T05:34:30.853Z,1.90
2018-07-03T05:36:59.170Z,1.90
2018-07-03T05:39:27.465Z,1.80
2018-07-03T05:41:55.815Z,2.30
2018-07-03T05:44:24.082Z,3.07
2018-07-03T05:46:52.397Z,2.53
2018-07-03T05:49:20.656Z,3.17
2018-07-03T05:51:48.951Z,2.60
2018-07-03T05:54:17.298Z,2.23
2018-07-03T05:56:45.605Z,2.37
2018-07-03T05:59:13.890Z,2.70
2018-07-03T06:01:42.202Z,2.10
2018-07-03T06:04:10.474Z,2.97
2018-07-03T06:06:38.819Z,5.87
2018-07-03T06:09:07.917Z,4.37
2018-07-03T06:11:36.142Z,2.70
2018-07-03T06:14:04.438Z,2.43
2018-07-03T06:16:32.728Z,2.40
2018-07-03T06:19:00.997Z,2.80
2018-07-03T06:21:29.532Z,2.03
2018-07-03T06:23:57.840Z,2.13
2018-07-03T06:26:26.233Z,2.07
2018-07-03T06:28:54.621Z,2.37
2018-07-03T06:31:22.910Z,1.80
2018-07-03T06:33:51.161Z,2.27
2018-07-03T06:36:19.480Z,2.03
2018-07-03T06:38:47.811Z,2.00
2018-07-03T06:41:16.082Z,2.00
2018-07-03T06:43:44.407Z,1.90
2018-07-03T06:46:12.694Z,1.50
2018-07-03T06:48:41.021Z,1.57
2018-07-03T06:51:09.346Z,1.70
2018-07-03T06:53:37.690Z,2.40
2018-07-03T06:56:05.998Z,1.73
2018-07-03T06:58:34.354Z,1.90
2018-07-03T07:01:02.653Z,2.07
2018-07-03T07:03:30.997Z,2.30
2018-07-03T07:05:59.270Z,1.53
2018-07-03T07:08:28.662Z,1.80
2018-07-03T07:10:56.956Z,1.53
2018-07-03T07:13:25.321Z,2.07
2018-07-03T07:15:54.526Z,2.00
2018-07-03T07:18:22.850Z,1.30
2018-07-03T07:20:51.129Z,1.70
2018-07-03T07:23:19.469Z,2.90
2018-07-03T07:25:47.782Z,1.70
2018-07-03T07:28:16.116Z,1.60
2018-07-03T07:30:44.417Z,1.30
2018-07-03T07:33:12.734Z,1.40
2018-07-03T07:35:41.030Z,1.80
2018-07-03T07:38:10.257Z,2.10
2018-07-03T07:40:38.569Z,1.80
2018-07-03T07:43:07.018Z,1.10
2018-07-03T07:45:35.502Z,1.67
2018-07-03T07:48:03.814Z,1.50
2018-07-03T07:50:32.154Z,1.50
2018-07-03T07:53:00.480Z,1.13
2018-07-03T07:55:28.866Z,1.37
2018-07-03T07:57:57.158Z,1.20
2018-07-03T08:00:25.477Z,1.80
2018-07-03T08:02:53.744Z,1.53
2018-07-03T08:05:22.290Z,1.63
2018-07-03T08:07:50.666Z,1.83
2018-07-03T08:10:18.953Z,1.20
2018-07-03T08:12:47.246Z,1.00
2018-07-03T08:15:15.551Z,1.03
2018-07-03T08:17:43.918Z,1.07
2018-07-03T08:20:12.239Z,1.47
2018-07-03T08:22:40.510Z,1.80
2018-07-03T08:25:08.806Z,1.57
2018-07-03T08:27:37.065Z,1.50
2018-07-03T08:30:05.637Z,1.87
2018-07-03T08:32:33.913Z,1.23
2018-07-03T08:35:02.302Z,1.70
2018-07-03T08:37:30.695Z,1.60
2018-07-03T08:39:59.010Z,1.23
2018-07-03T08:42:27.289Z,1.33
2018-07-03T08:44:55.608Z,1.40
2018-07-03T08:47:23.932Z,2.03
2018-07-03T08:49:52.278Z,1.53
2018-07-03T08:52:20.678Z,1.20
2018-07-03T08:54:49.006Z,1.00
2018-07-03T08:57:20.965Z,1.70
2018-07-03T08:59:49.633Z,1.40
2018-07-03T09:02:18.077Z,1.40
2018-07-03T09:04:46.405Z,1.37
2018-07-03T09:07:14.810Z,1.30
2018-07-03T09:09:43.147Z,1.30
2018-07-03T09:12:11.438Z,0.97
2018-07-03T09:14:39.867Z,1.17
2018-07-03T09:17:13.449Z,1.43
2018-07-03T09:19:42.040Z,1.77
2018-07-03T09:22:10.370Z,1.30
2018-07-03T09:24:38.671Z,1.40
2018-07-03T09:27:06.997Z,1.30
2018-07-03T09:29:35.373Z,1.43
2018-07-03T09:32:03.729Z,1.40
2018-07-03T09:34:32.063Z,1.40
2018-07-03T09:37:00.394Z,1.60
2018-07-03T09:39:28.707Z,1.30
2018-07-03T09:41:57.038Z,2.03
2018-07-03T09:44:25.315Z,1.80
2018-07-03T09:46:53.723Z,1.73
2018-07-03T09:49:22.015Z,1.40
2018-07-03T09:51:50.314Z,1.30
2018-07-03T09:54:18.680Z,1.77
2018-07-03T09:56:46.981Z,1.37
2018-07-03T09:59:15.265Z,1.30
2018-07-03T10:01:43.568Z,1.50
2018-07-03T10:04:11.885Z,1.67
2018-07-03T10:06:40.246Z,1.10
2018-07-03T10:09:09.487Z,1.70
2018-07-03T10:11:37.775Z,1.17
2018-07-03T10:14:11.382Z,1.07
2018-07-03T10:16:41.066Z,2.00
2018-07-03T10:19:10.704Z,1.70
2018-07-03T10:21:39.097Z,1.50
2018-07-03T10:24:07.474Z,1.43
2018-07-03T10:26:35.772Z,1.37
2018-07-03T10:29:04.113Z,1.53
2018-07-03T10:31:32.445Z,1.67
2018-07-03T10:34:00.732Z,1.40
2018-07-03T10:36:29.022Z,1.50
2018-07-03T10:38:57.311Z,1.90
2018-07-03T10:41:25.648Z,1.53
2018-07-03T10:43:54.053Z,1.83
2018-07-03T10:46:22.350Z,2.23
2018-07-03T10:48:50.659Z,2.00
2018-07-03T10:51:18.993Z,1.73
2018-07-03T10:53:47.425Z,2.03
2018-07-03T10:56:15.770Z,1.67
2018-07-03T10:58:44.046Z,1.70
2018-07-03T11:01:12.327Z,2.00
2018-07-03T11:03:40.678Z,1.53
2018-07-03T11:06:08.950Z,1.77
2018-07-03T11:08:37.253Z,2.20
2018-07-03T11:11:05.641Z,1.80
2018-07-03T11:13:34.709Z,2.17
2018-07-03T11:16:03.033Z,1.40
2018-07-03T11:18:31.332Z,1.70
2018-07-03T11:20:59.594Z,1.80
2018-07-03T11:23:27.901Z,1.87
2018-07-03T11:25:56.177Z,2.30
2018-07-03T11:28:24.490Z,2.10
2018-07-03T11:30:52.786Z,1.83
2018-07-03T11:33:21.077Z,2.20
2018-07-03T11:35:49.341Z,2.27
2018-07-03T11:38:17.630Z,1.87
2018-07-03T11:40:45.910Z,2.10
2018-07-03T11:43:14.209Z,2.07
2018-07-03T11:45:42.633Z,2.50
2018-07-03T11:48:10.925Z,2.60
2018-07-03T11:50:39.190Z,2.60
2018-07-03T11:53:07.531Z,2.70
2018-07-03T11:55:36.085Z,2.83
2018-07-03T11:58:04.422Z,2.90
2018-07-03T12:00:32.798Z,3.03
2018-07-03T12:03:01.110Z,3.33
2018-07-03T12:05:29.406Z,2.70
2018-07-03T12:07:57.713Z,2.60
2018-07-03T12:10:26.004Z,2.70
2018-07-03T12:12:54.329Z,2.63
2018-07-03T12:15:22.587Z,2.60
2018-07-03T12:17:50.936Z,3.37
2018-07-03T12:20:19.234Z,3.20
2018-07-03T12:22:47.661Z,2.60
2018-07-03T12:25:15.995Z,2.67
2018-07-03T12:27:44.261Z,2.60
2018-07-03T12:30:13.304Z,2.80
2018-07-03T12:32:41.574Z,2.43
2018-07-03T12:35:09.933Z,2.37
2018-07-03T12:37:38.313Z,2.40
2018-07-03T12:40:06.710Z,2.47
2018-07-03T12:42:35.093Z,2.67
2018-07-03T12:45:03.561Z,2.23
2018-07-03T12:47:31.825Z,2.67
2018-07-03T12:50:00.126Z,2.83
2018-07-03T12:52:28.442Z,3.03
2018-07-03T12:54:56.759Z,2.63
2018-07-03T12:57:25.089Z,3.17
2018-07-03T12:59:53.406Z,2.57
2018-07-03T13:02:21.761Z,2.67
2018-07-03T13:04:50.029Z,2.63
2018-07-03T13:07:18.304Z,3.67
2018-07-03T13:09:46.606Z,2.60
2018-07-03T13:12:14.878Z,3.13
2018-07-03T13:14:43.181Z,3.00
2018-07-03T13:17:11.445Z,3.20
2018-07-03T13:19:39.762Z,2.73
2018-07-03T13:22:08.070Z,2.60
2018-07-03T13:24:36.364Z,2.67
2018-07-03T13:27:04.699Z,3.57
2018-07-03T13:29:33.001Z,3.00
2018-07-03T13:32:02.296Z,2.93
2018-07-03T13:34:30.624Z,2.70
2018-07-03T13:36:58.890Z,2.70
2018-07-03T13:39:27.218Z,3.03
2018-07-03T13:41:55.527Z,3.30
2018-07-03T13:44:23.826Z,3.10
2018-07-03T13:46:52.094Z,3.20
2018-07-03T13:49:20.389Z,2.70
2018-07-03T13:51:48.666Z,3.13
2018-07-03T13:54:16.978Z,3.13
2018-07-03T13:56:45.506Z,3.07
2018-07-03T13:59:13.777Z,3.67
2018-07-03T14:01:42.083Z,3.63
2018-07-03T14:04:10.384Z,3.40
2018-07-03T14:06:38.698Z,2.90
2018-07-03T14:09:07.495Z,3.27
2018-07-03T14:11:35.800Z,3.33
2018-07-03T14:14:04.079Z,3.40
2018-07-03T14:16:32.416Z,3.60
2018-07-03T14:19:00.737Z,3.77
2018-07-03T14:21:29.062Z,3.03
2018-07-03T14:23:57.336Z,3.60
2018-07-03T14:26:25.643Z,4.13
2018-07-03T14:28:54.379Z,3.50
2018-07-03T14:31:22.699Z,3.87
2018-07-03T14:33:50.970Z,2.60
2018-07-03T14:36:19.322Z,3.57
2018-07-03T14:38:47.588Z,3.17
2018-07-03T14:41:15.895Z,3.47
2018-07-03T14:43:44.165Z,3.60
2018-07-03T14:46:12.450Z,3.07
2018-07-03T14:48:40.725Z,4.07
2018-07-03T14:51:09.082Z,3.20
2018-07-03T14:53:37.427Z,3.40
2018-07-03T14:56:05.726Z,2.90
2018-07-03T14:58:34.001Z,2.97
2018-07-03T15:01:02.312Z,3.43
2018-07-03T15:03:30.582Z,3.60
2018-07-03T15:05:59.918Z,3.03
2018-07-03T15:08:28.202Z,3.47
2018-07-03T15:10:56.505Z,2.90
2018-07-03T15:13:24.805Z,3.17
2018-07-03T15:15:53.114Z,2.90
2018-07-03T15:18:21.405Z,3.20
2018-07-03T15:20:49.706Z,3.97
2018-07-03T15:23:18.006Z,3.47
2018-07-03T15:25:46.346Z,3.30
2018-07-03T15:28:14.963Z,2.67
2018-07-03T15:30:43.253Z,3.50
2018-07-03T15:33:11.552Z,4.10
2018-07-03T15:35:39.823Z,3.10
2018-07-03T15:38:08.126Z,3.07
2018-07-03T15:40:36.417Z,3.73
2018-07-03T15:43:04.727Z,3.07
2018-07-03T15:45:33.177Z,3.40
2018-07-03T15:48:01.461Z,3.70
2018-07-03T15:50:29.724Z,3.47
2018-07-03T15:52:58.048Z,3.60
2018-07-03T15:55:26.350Z,3.20
2018-07-03T15:57:54.641Z,3.20
2018-07-03T16:00:22.909Z,3.90
2018-07-03T16:02:56.688Z,3.20
2018-07-03T16:05:30.540Z,4.00
2018-07-03T16:08:04.544Z,3.60
2018-07-03T16:10:32.820Z,4.10
2018-07-03T16:13:01.110Z,3.70
2018-07-03T16:15:29.402Z,4.70
2018-07-03T16:17:57.720Z,3.83
2018-07-03T16:20:31.265Z,3.00
2018-07-03T16:22:59.564Z,3.87
2018-07-03T16:25:27.980Z,4.10
2018-07-03T16:27:56.228Z,4.10
2018-07-03T16:30:24.505Z,3.47
2018-07-03T16:32:52.817Z,3.60
2018-07-03T16:35:21.117Z,3.57
2018-07-03T16:37:49.390Z,3.70
2018-07-03T16:40:17.721Z,3.70
2018-07-03T16:42:46.014Z,2.73
2018-07-03T16:45:14.373Z,4.43
2018-07-03T16:47:42.666Z,3.10
2018-07-03T16:50:10.977Z,3.63
2018-07-03T16:52:39.291Z,3.37
2018-07-03T16:55:07.613Z,3.70
2018-07-03T16:57:35.899Z,3.50
2018-07-03T17:00:04.447Z,2.90
2018-07-03T17:02:32.721Z,3.10
2018-07-03T17:05:01.026Z,2.83
2018-07-03T17:07:29.338Z,3.03
2018-07-03T17:09:57.650Z,2.67
2018-07-03T17:12:25.913Z,2.90
2018-07-03T17:14:54.236Z,3.20
2018-07-03T17:17:22.501Z,2.83
2018-07-03T17:19:50.821Z,3.20
2018-07-03T17:22:19.082Z,2.93
2018-07-03T17:24:47.377Z,3.93
2018-07-03T17:27:15.673Z,3.70
2018-07-03T17:29:44.638Z,3.60
2018-07-03T17:32:12.925Z,3.23
2018-07-03T17:34:41.274Z,3.70
2018-07-03T17:37:09.537Z,3.40
2018-07-03T17:39:43.313Z,2.70
2018-07-03T17:42:17.167Z,3.43
2018-07-03T17:45:54.166Z,3.30
2018-07-03T17:48:22.445Z,3.37
2018-07-03T17:50:50.813Z,3.20
2018-07-03T17:53:19.148Z,3.00
2018-07-03T17:55:47.475Z,3.80
2018-07-03T17:58:15.786Z,4.10
2018-07-03T18:00:44.091Z,3.43
2018-07-03T18:03:12.395Z,3.57
2018-07-03T18:05:40.695Z,3.70
2018-07-03T18:08:08.976Z,3.77
2018-07-03T18:10:37.300Z,3.60
2018-07-03T18:13:05.602Z,3.20
2018-07-03T18:15:33.902Z,3.83
2018-07-03T18:18:02.270Z,4.17
2018-07-03T18:20:30.749Z,3.87
2018-07-03T18:22:59.595Z,3.63
2018-07-03T18:25:28.793Z,3.27
2018-07-03T18:27:57.616Z,3.53
2018-07-03T18:30:26.607Z,3.27
2018-07-03T18:32:55.449Z,3.20
2018-07-03T18:35:24.663Z,3.07
2018-07-03T18:37:53.485Z,3.23
2018-07-03T18:40:22.434Z,3.63
2018-07-03T18:42:51.522Z,3.17
2018-07-03T18:45:20.463Z,2.90
2018-07-03T18:47:49.354Z,2.70
2018-07-03T18:50:18.329Z,3.60
2018-07-03T18:52:47.217Z,3.30
2018-07-03T18:55:15.974Z,3.77
2018-07-03T18:57:44.891Z,2.90
2018-07-03T19:00:13.791Z,3.33
2018-07-03T19:02:42.758Z,4.43
2018-07-03T19:05:11.553Z,3.20
2018-07-03T19:07:40.364Z,3.57
2018-07-03T19:10:09.189Z,3.07
2018-07-03T19:12:37.941Z,3.20
2018-07-03T19:15:06.888Z,3.20
2018-07-03T19:17:35.499Z,3.30
2018-07-03T19:20:04.407Z,2.63
2018-07-03T19:22:33.296Z,3.10
2018-07-03T19:25:02.056Z,2.90
2018-07-03T19:27:31.241Z,3.80
2018-07-03T19:30:00.233Z,3.23
2018-07-03T19:32:28.948Z,2.90
2018-07-03T19:34:58.053Z,3.27
2018-07-03T19:37:27.035Z,3.10
2018-07-03T19:39:55.909Z,3.13
2018-07-03T19:42:24.688Z,3.43
2018-07-03T19:44:53.782Z,3.47
2018-07-03T19:47:22.518Z,3.37
2018-07-03T19:49:51.484Z,3.73
2018-07-03T19:52:20.748Z,3.50
2018-07-03T19:54:49.813Z,3.60
2018-07-03T19:57:18.469Z,3.10
2018-07-03T19:59:47.828Z,3.63
2018-07-03T20:02:16.491Z,3.50
2018-07-03T20:04:44.924Z,4.00
2018-07-03T20:07:13.798Z,3.70
2018-07-03T20:09:42.332Z,3.80
2018-07-03T20:12:11.236Z,3.50
2018-07-03T20:14:40.173Z,3.30
2018-07-03T20:17:08.472Z,4.00
2018-07-03T20:19:36.749Z,3.40
2018-07-03T20:22:05.046Z,3.50
2018-07-03T20:24:33.311Z,3.40
2018-07-03T20:27:01.646Z,3.60
2018-07-03T20:29:29.950Z,3.20
2018-07-03T20:31:58.365Z,3.43
2018-07-03T20:34:26.626Z,4.00
2018-07-03T20:36:54.946Z,4.10
2018-07-03T20:39:23.200Z,3.20
2018-07-03T20:41:51.506Z,3.50
2018-07-03T20:44:19.788Z,3.40
2018-07-03T20:46:48.070Z,3.57
2018-07-03T20:49:16.331Z,3.13
2018-07-03T20:51:44.617Z,3.20
2018-07-03T20:54:13.006Z,4.33
2018-07-03T20:56:41.297Z,3.73
2018-07-03T20:59:09.575Z,3.80
2018-07-03T21:01:37.878Z,4.27
2018-07-03T21:04:06.281Z,3.60
2018-07-03T21:06:34.486Z,3.30
2018-07-03T21:09:02.813Z,4.80
2018-07-03T21:11:31.144Z,4.03
2018-07-03T21:13:59.440Z,3.70
2018-07-03T21:16:27.714Z,4.27
2018-07-03T21:18:56.030Z,3.57
2018-07-03T21:21:24.307Z,4.27
2018-07-03T21:23:52.602Z,3.80
2018-07-03T21:26:20.858Z,3.87
2018-07-03T21:28:49.147Z,3.70
2018-07-03T21:31:17.409Z,3.67
2018-07-03T21:33:45.709Z,3.57
2018-07-03T21:36:13.978Z,3.77
2018-07-03T21:38:42.294Z,3.80
2018-07-03T21:41:10.565Z,3.77
2018-07-03T21:43:38.865Z,3.57
2018-07-03T21:46:07.144Z,3.87
2018-07-03T21:48:35.450Z,3.80
2018-07-03T21:51:03.750Z,3.80
2018-07-03T21:53:32.053Z,3.40
2018-07-03T21:56:00.325Z,4.00
2018-07-03T21:58:28.612Z,4.53
2018-07-03T22:00:56.893Z,3.10
2018-07-03T22:03:25.182Z,3.90
2018-07-03T22:05:53.494Z,3.73
2018-07-03T22:08:21.774Z,3.10
2018-07-03T22:10:50.053Z,3.77
2018-07-03T22:13:18.354Z,3.90
2018-07-03T22:15:46.621Z,3.70
2018-07-03T22:18:14.945Z,3.07
2018-07-03T22:20:43.210Z,3.80
2018-07-03T22:23:11.469Z,3.77
2018-07-03T22:25:39.773Z,3.33
2018-07-03T22:28:08.036Z,3.40
2018-07-03T22:30:36.368Z,3.43
2018-07-03T22:33:04.636Z,3.50
2018-07-03T22:35:32.929Z,3.37
2018-07-03T22:38:01.210Z,3.40
2018-07-03T22:40:29.517Z,3.50
2018-07-03T22:42:57.815Z,3.97
2018-07-03T22:45:26.107Z,3.90
2018-07-03T22:47:54.406Z,3.53
2018-07-03T22:50:22.721Z,3.07
2018-07-03T22:52:51.046Z,3.80
2018-07-03T22:55:19.349Z,3.30
2018-07-03T22:57:47.599Z,3.20
2018-07-03T23:00:15.899Z,3.80
2018-07-03T23:02:44.173Z,3.30
2018-07-03T23:05:12.464Z,3.00
2018-07-03T23:07:40.742Z,2.77
2018-07-03T23:10:09.044Z,3.30
2018-07-03T23:12:37.310Z,3.53
2018-07-03T23:15:05.753Z,3.40
2018-07-03T23:17:34.032Z,3.30
2018-07-03T23:20:02.326Z,2.70
2018-07-03T23:22:30.597Z,3.17
2018-07-03T23:24:58.881Z,3.73
2018-07-03T23:27:27.177Z,3.27
2018-07-03T23:29:55.470Z,3.30
2018-07-03T23:32:23.737Z,3.50
2018-07-03T23:34:51.991Z,3.30
2018-07-03T23:37:20.309Z,3.10
2018-07-03T23:39:48.590Z,3.20
2018-07-03T23:42:16.885Z,3.07
2018-07-03T23:44:46.805Z,2.57
2018-07-03T23:47:20.556Z,2.90
2018-07-03T23:49:54.380Z,3.30
2018-07-03T23:52:28.250Z,3.30
2018-07-03T23:55:01.958Z,3.37
2018-07-03T23:57:35.819Z,3.40
